Time;durP1;ratioP1;P1;durP2;ratioP2;P2;SDS_P1;SDS_P2;PMS_P1;PMS_P2;Temp;Humidity;BMP_temperature;BMP_pressure;BME280_temperature;BME280_humidity;BME280_pressure;Samples;Min_cycle;Max_cycle;Signal;HPM_P1;HPM_P2
2021/12/02 00:00:12;;;;;;;13.07;7.18;;;;;;;;;;4977012;28;20105;-84
2021/12/02 00:02:38;;;;;;;14.35;7.75;;;;;;;;;;4960274;28;20035;-82
2021/12/02 00:05:05;;;;;;;13.85;6.72;;;;;;;;;;4976936;28;20460;-83
2021/12/02 00:07:31;;;;;;;11.18;7.22;;;;;;;;;;4960183;28;20064;-83
2021/12/02 00:09:57;;;;;;;12.73;7.00;;;;;;;;;;4977005;28;20034;-83
2021/12/02 00:12:23;;;;;;;13.32;7.40;;;;;;;;;;4958343;28;20054;-83
2021/12/02 00:14:50;;;;;;;16.23;8.20;;;;;;;;;;4957664;29;20039;-83
2021/12/02 00:22:28;;;;;;;15.90;7.85;;;;;;;;;;4957889;29;20038;-83
2021/12/02 00:24:56;;;;;;;17.33;8.75;;;;;;;;;;4957404;29;20102;-83
2021/12/02 00:27:25;;;;;;;13.18;6.72;;;;;;;;;;5028258;28;20029;-83
2021/12/02 00:29:54;;;;;;;11.95;6.60;;;;;;;;;;5056195;28;20417;-82
2021/12/02 00:32:21;;;;;;;14.38;6.80;;;;;;;;;;5056897;28;20044;-82
2021/12/02 00:34:47;;;;;;;14.18;6.30;;;;;;;;;;5055896;28;20296;-82
2021/12/02 00:37:13;;;;;;;9.25;5.75;;;;;;;;;;5056714;28;20119;-82
2021/12/02 00:39:39;;;;;;;13.38;6.05;;;;;;;;;;5056968;28;20033;-83
2021/12/02 00:42:07;;;;;;;12.98;6.10;;;;;;;;;;5055133;28;20040;-83
2021/12/02 00:44:34;;;;;;;13.07;5.80;;;;;;;;;;5057970;28;20112;-81
2021/12/02 00:47:03;;;;;;;11.32;5.75;;;;;;;;;;5056851;28;20021;-81
2021/12/02 00:49:32;;;;;;;10.23;6.40;;;;;;;;;;5059139;28;20354;-81
2021/12/02 00:52:00;;;;;;;12.55;6.65;;;;;;;;;;5059834;28;20346;-81
2021/12/02 00:54:27;;;;;;;13.25;6.82;;;;;;;;;;5059716;28;20053;-81
2021/12/02 00:56:54;;;;;;;16.48;6.70;;;;;;;;;;5060534;28;20068;-82
2021/12/02 00:59:20;;;;;;;11.88;5.80;;;;;;;;;;5080654;28;20410;-81
2021/12/02 01:01:48;;;;;;;9.02;5.35;;;;;;;;;;5079738;28;20115;-83
2021/12/02 01:04:16;;;;;;;9.27;4.75;;;;;;;;;;5080701;28;20024;-83
2021/12/02 01:06:43;;;;;;;9.10;5.10;;;;;;;;;;5080487;28;20021;-84
2021/12/02 01:09:10;;;;;;;9.52;4.78;;;;;;;;;;5080607;28;20067;-83
2021/12/02 01:11:36;;;;;;;12.25;4.47;;;;;;;;;;5079640;28;20021;-83
2021/12/02 01:14:03;;;;;;;8.20;4.30;;;;;;;;;;5060673;28;20032;-83
2021/12/02 01:16:29;;;;;;;8.98;4.50;;;;;;;;;;5060732;28;20033;-83
2021/12/02 01:18:55;;;;;;;8.18;4.07;;;;;;;;;;5059360;28;20032;-84
2021/12/02 01:21:23;;;;;;;7.80;4.30;;;;;;;;;;5042315;28;20047;-83
2021/12/02 01:23:51;;;;;;;7.53;3.90;;;;;;;;;;5060330;28;20112;-83
2021/12/02 01:26:18;;;;;;;6.45;4.03;;;;;;;;;;5060491;28;20033;-83
2021/12/02 01:28:45;;;;;;;10.85;3.90;;;;;;;;;;5060433;28;20399;-83
2021/12/02 01:31:12;;;;;;;9.27;4.45;;;;;;;;;;5059212;28;20327;-83
2021/12/02 01:33:39;;;;;;;8.10;4.63;;;;;;;;;;5074626;28;20123;-83
2021/12/02 01:36:05;;;;;;;6.80;4.10;;;;;;;;;;5080116;28;20029;-83
2021/12/02 01:38:33;;;;;;;7.65;3.88;;;;;;;;;;5078861;28;20044;-83
2021/12/02 01:41:01;;;;;;;9.38;4.18;;;;;;;;;;5079959;28;20039;-83
2021/12/02 01:43:42;;;;;;;10.25;4.93;;;;;;;;;;5079830;28;20020;-83
2021/12/02 01:46:08;;;;;;;10.70;4.35;;;;;;;;;;5080207;28;20020;-83
2021/12/02 01:48:37;;;;;;;9.50;4.50;;;;;;;;;;5079956;28;20047;-83
2021/12/02 01:51:23;;;;;;;7.28;4.05;;;;;;;;;;5079931;28;20031;-83
2021/12/02 01:53:50;;;;;;;10.93;5.43;;;;;;;;;;5079796;28;20025;-83
2021/12/02 01:56:17;;;;;;;10.40;5.22;;;;;;;;;;5080028;28;20318;-83
2021/12/02 01:58:46;;;;;;;9.85;5.55;;;;;;;;;;5062961;28;20028;-83
2021/12/02 02:01:22;;;;;;;10.48;5.80;;;;;;;;;;5040951;28;20037;-83
2021/12/02 02:03:49;;;;;;;9.63;5.40;;;;;;;;;;5059809;28;20051;-83
2021/12/02 02:06:19;;;;;;;9.93;5.05;;;;;;;;;;5059379;28;20048;-82
2021/12/02 02:08:46;;;;;;;17.55;5.30;;;;;;;;;;5059799;28;20033;-82
2021/12/02 02:11:13;;;;;;;10.18;4.90;;;;;;;;;;5059323;28;20032;-82
2021/12/02 02:13:42;;;;;;;10.18;5.35;;;;;;;;;;5059604;28;20032;-82
2021/12/02 02:16:08;;;;;;;13.50;5.15;;;;;;;;;;5059551;28;20036;-81
2021/12/02 02:18:35;;;;;;;9.65;4.82;;;;;;;;;;5057465;28;20091;-82
2021/12/02 02:21:07;;;;;;;7.80;4.35;;;;;;;;;;5058033;28;20064;-82
2021/12/02 02:23:39;;;;;;;12.10;5.00;;;;;;;;;;5058304;28;20418;-82
2021/12/02 02:26:07;;;;;;;12.00;5.13;;;;;;;;;;5057846;28;20041;-85
2021/12/02 02:28:33;;;;;;;10.30;5.30;;;;;;;;;;5059171;28;20025;-83
2021/12/02 02:31:00;;;;;;;10.43;5.10;;;;;;;;;;5058219;28;20028;-83
2021/12/02 02:33:34;;;;;;;12.45;5.60;;;;;;;;;;5075705;28;20314;-83
2021/12/02 02:36:00;;;;;;;12.68;5.10;;;;;;;;;;5077919;28;20063;-83
2021/12/02 02:38:27;;;;;;;11.05;5.07;;;;;;;;;;5077782;28;20083;-83
2021/12/02 02:40:54;;;;;;;11.50;4.85;;;;;;;;;;5077845;28;20115;-84
2021/12/02 02:43:23;;;;;;;11.93;4.60;;;;;;;;;;5068048;28;20036;-84
2021/12/02 02:45:49;;;;;;;18.25;4.72;;;;;;;;;;5058984;28;20387;-84
2021/12/02 02:48:16;;;;;;;10.60;5.30;;;;;;;;;;5058828;28;20021;-83
2021/12/02 02:50:42;;;;;;;12.65;5.88;;;;;;;;;;5058652;28;20028;-83
2021/12/02 02:53:15;;;;;;;12.07;5.35;;;;;;;;;;5057582;28;20032;-82
2021/12/02 02:55:44;;;;;;;12.13;5.75;;;;;;;;;;5058381;28;20052;-82
2021/12/02 03:01:23;;;;;;;18.50;6.40;;;;;;;;;;5058584;28;20025;-82
2021/12/02 03:03:46;;;;;;;11.73;5.00;;;;;;;;;;5070984;28;20056;-82
2021/12/02 03:08:55;;;;;;;13.93;5.05;;;;;;;;;;5078418;28;20326;-83
2021/12/02 03:11:22;;;;;;;12.18;4.32;;;;;;;;;;5077055;28;20104;-83
2021/12/02 03:13:53;;;;;;;11.35;4.70;;;;;;;;;;5078436;28;20029;-83
2021/12/02 03:19:06;;;;;;;7.97;4.20;;;;;;;;;;5078412;28;20047;-84
2021/12/02 03:21:32;;;;;;;11.50;4.95;;;;;;;;;;5078053;28;20060;-83
2021/12/02 03:24:00;;;;;;;8.13;4.40;;;;;;;;;;5060402;28;20397;-83
2021/12/02 03:26:26;;;;;;;9.65;4.68;;;;;;;;;;5058264;28;20032;-83
2021/12/02 03:28:53;;;;;;;11.70;4.50;;;;;;;;;;5057953;28;20032;-83
2021/12/02 03:31:19;;;;;;;10.13;4.85;;;;;;;;;;5057848;28;20033;-83
2021/12/02 03:33:46;;;;;;;9.23;4.43;;;;;;;;;;5058126;28;20101;-83
2021/12/02 03:36:13;;;;;;;9.60;4.47;;;;;;;;;;5057595;28;20403;-82
2021/12/02 03:38:39;;;;;;;10.02;4.00;;;;;;;;;;5057440;28;20053;-82
2021/12/02 03:41:06;;;;;;;9.25;3.55;;;;;;;;;;5057672;28;20459;-82
2021/12/02 03:43:35;;;;;;;10.75;4.45;;;;;;;;;;5058027;28;20072;-82
2021/12/02 03:46:02;;;;;;;11.05;3.58;;;;;;;;;;5057821;28;20041;-82
2021/12/02 03:48:28;;;;;;;8.43;3.90;;;;;;;;;;5057874;28;20100;-83
2021/12/02 03:50:54;;;;;;;8.32;4.03;;;;;;;;;;5057893;28;20029;-82
2021/12/02 03:53:20;;;;;;;9.18;4.28;;;;;;;;;;5057443;28;20108;-82
2021/12/02 03:55:46;;;;;;;9.63;4.90;;;;;;;;;;5057535;28;20024;-83
2021/12/02 03:58:12;;;;;;;8.73;4.60;;;;;;;;;;5057526;28;20068;-83
2021/12/02 04:00:38;;;;;;;6.38;3.58;;;;;;;;;;5057491;28;20029;-83
2021/12/02 04:03:04;;;;;;;7.88;4.40;;;;;;;;;;5068691;28;20314;-82
2021/12/02 04:05:30;;;;;;;10.98;4.82;;;;;;;;;;5057120;28;20080;-82
2021/12/02 04:07:56;;;;;;;12.50;4.68;;;;;;;;;;5057121;28;20131;-82
2021/12/02 04:10:24;;;;;;;11.27;4.35;;;;;;;;;;5057271;28;20033;-82
2021/12/02 04:15:32;;;;;;;10.57;3.83;;;;;;;;;;5057407;28;20037;-84
2021/12/02 04:17:58;;;;;;;8.07;3.85;;;;;;;;;;5057331;28;20307;-82
2021/12/02 04:20:27;;;;;;;7.40;3.72;;;;;;;;;;5057205;28;20025;-83
2021/12/02 04:22:56;;;;;;;7.95;3.67;;;;;;;;;;5069486;28;20112;-83
2021/12/02 04:25:23;;;;;;;6.35;3.78;;;;;;;;;;5077031;28;20115;-85
2021/12/02 04:27:50;;;;;;;10.00;4.50;;;;;;;;;;5077047;28;20024;-83
2021/12/02 04:30:20;;;;;;;8.88;4.30;;;;;;;;;;5077034;28;20021;-82
2021/12/02 04:32:46;;;;;;;12.20;4.47;;;;;;;;;;5077163;28;20318;-83
2021/12/02 04:38:07;;;;;;;10.15;3.63;;;;;;;;;;5076642;28;20154;-84
2021/12/02 04:40:36;;;;;;;7.32;3.38;;;;;;;;;;5060061;28;20060;-84
2021/12/02 04:43:02;;;;;;;8.15;3.67;;;;;;;;;;5056821;28;20025;-84
2021/12/02 04:45:28;;;;;;;8.10;3.67;;;;;;;;;;5055853;28;20029;-84
2021/12/02 04:47:54;;;;;;;8.40;3.20;;;;;;;;;;5057060;28;20031;-83
2021/12/02 04:50:20;;;;;;;6.88;3.60;;;;;;;;;;5056919;28;20072;-83
2021/12/02 04:52:46;;;;;;;7.43;3.97;;;;;;;;;;5056996;28;20024;-83
2021/12/02 04:55:12;;;;;;;12.10;4.10;;;;;;;;;;5056709;28;20048;-83
2021/12/02 04:57:38;;;;;;;13.18;4.10;;;;;;;;;;5057009;28;20314;-83
2021/12/02 05:00:05;;;;;;;6.40;3.88;;;;;;;;;;5057500;28;20025;-83
2021/12/02 05:02:31;;;;;;;8.75;4.00;;;;;;;;;;5071290;28;20039;-83
2021/12/02 05:04:57;;;;;;;9.40;3.97;;;;;;;;;;5077110;28;20028;-83
2021/12/02 05:07:42;;;;;;;9.07;4.00;;;;;;;;;;5076616;28;20115;-84
2021/12/02 05:10:08;;;;;;;7.85;4.53;;;;;;;;;;5068219;28;20037;-82
2021/12/02 05:12:34;;;;;;;8.43;3.83;;;;;;;;;;5056583;28;20494;-82
2021/12/02 05:15:01;;;;;;;9.45;4.28;;;;;;;;;;5056589;28;20025;-82
2021/12/02 05:17:27;;;;;;;11.52;4.03;;;;;;;;;;5055512;28;20331;-82
2021/12/02 05:19:53;;;;;;;7.80;4.30;;;;;;;;;;5055403;28;20025;-82
2021/12/02 05:22:19;;;;;;;12.93;5.22;;;;;;;;;;5075464;28;20024;-82
2021/12/02 05:24:45;;;;;;;9.52;5.13;;;;;;;;;;5075411;28;20052;-82
2021/12/02 05:27:13;;;;;;;11.10;4.90;;;;;;;;;;5075142;28;20040;-83
2021/12/02 05:29:40;;;;;;;14.60;5.28;;;;;;;;;;5075342;28;20021;-82
2021/12/02 05:32:06;;;;;;;16.35;4.32;;;;;;;;;;5076266;28;20021;-82
2021/12/02 05:34:32;;;;;;;8.48;4.60;;;;;;;;;;5077344;28;20040;-82
2021/12/02 05:36:58;;;;;;;12.48;5.32;;;;;;;;;;5080107;28;20058;-82
2021/12/02 05:39:24;;;;;;;12.95;5.07;;;;;;;;;;5077975;28;20051;-83
2021/12/02 05:41:53;;;;;;;14.32;5.10;;;;;;;;;;5080095;28;20410;-84
2021/12/02 05:44:21;;;;;;;12.93;5.53;;;;;;;;;;5067327;28;20057;-84
2021/12/02 05:46:47;;;;;;;15.73;6.30;;;;;;;;;;5059093;28;20013;-83
2021/12/02 05:49:13;;;;;;;13.32;5.75;;;;;;;;;;5058934;28;20430;-82
2021/12/02 05:51:41;;;;;;;13.43;6.65;;;;;;;;;;5060638;28;20327;-82
2021/12/02 05:54:08;;;;;;;11.80;6.32;;;;;;;;;;5060222;28;20441;-83
2021/12/02 05:56:34;;;;;;;11.05;5.35;;;;;;;;;;5059949;28;20029;-84
2021/12/02 05:59:00;;;;;;;11.02;5.22;;;;;;;;;;5059806;28;20032;-84
2021/12/02 06:01:26;;;;;;;17.80;7.10;;;;;;;;;;5040510;28;20424;-86
2021/12/02 06:03:52;;;;;;;20.23;8.30;;;;;;;;;;5064503;28;20033;-84
2021/12/02 06:06:18;;;;;;;26.92;9.77;;;;;;;;;;5058670;28;20041;-83
2021/12/02 06:08:44;;;;;;;18.02;7.55;;;;;;;;;;5058238;28;20074;-84
2021/12/02 06:11:11;;;;;;;18.80;6.80;;;;;;;;;;5055951;28;20025;-84
2021/12/02 06:13:37;;;;;;;14.27;6.50;;;;;;;;;;5045191;28;20030;-84
2021/12/02 06:16:03;;;;;;;15.35;7.38;;;;;;;;;;5051762;28;20025;-86
2021/12/02 06:18:29;;;;;;;18.58;8.00;;;;;;;;;;5059959;28;20032;-86
2021/12/02 06:20:58;;;;;;;19.17;8.82;;;;;;;;;;5059593;28;20025;-83
2021/12/02 06:23:24;;;;;;;22.60;10.15;;;;;;;;;;5058411;28;20029;-83
2021/12/02 06:25:51;;;;;;;21.83;9.52;;;;;;;;;;5059391;28;20037;-83
2021/12/02 06:28:17;;;;;;;24.15;10.73;;;;;;;;;;5059409;28;20092;-83
2021/12/02 06:30:44;;;;;;;24.10;11.05;;;;;;;;;;5058817;28;20025;-86
2021/12/02 06:33:11;;;;;;;15.05;7.85;;;;;;;;;;5058355;28;20048;-83
2021/12/02 06:35:37;;;;;;;20.42;8.05;;;;;;;;;;5059305;28;20292;-84
2021/12/02 06:38:03;;;;;;;32.17;19.25;;;;;;;;;;5059267;28;20036;-83
2021/12/02 06:40:29;;;;;;;24.30;11.20;;;;;;;;;;5049332;28;20048;-85
2021/12/02 06:42:56;;;;;;;18.20;7.38;;;;;;;;;;5041761;28;20031;-85
2021/12/02 06:45:22;;;;;;;18.80;7.78;;;;;;;;;;5041404;28;20106;-85
2021/12/02 06:47:50;;;;;;;25.33;12.32;;;;;;;;;;5040841;28;20023;-85
2021/12/02 06:50:18;;;;;;;20.65;10.07;;;;;;;;;;5041437;28;20032;-85
2021/12/02 06:52:48;;;;;;;17.48;9.23;;;;;;;;;;5041366;28;20018;-84
2021/12/02 06:55:14;;;;;;;23.67;9.52;;;;;;;;;;5058701;28;20395;-84
2021/12/02 06:57:41;;;;;;;15.05;7.20;;;;;;;;;;5041204;28;20029;-84
2021/12/02 07:00:08;;;;;;;14.05;7.10;;;;;;;;;;5058730;28;20025;-84
2021/12/02 07:02:38;;;;;;;16.15;9.18;;;;;;;;;;5058615;28;20038;-84
2021/12/02 07:05:08;;;;;;;14.52;7.18;;;;;;;;;;5058687;28;20058;-83
2021/12/02 07:07:37;;;;;;;9.15;5.50;;;;;;;;;;5058193;28;20112;-84
2021/12/02 07:10:08;;;;;;;22.25;8.98;;;;;;;;;;5058507;28;20442;-85
2021/12/02 07:12:35;;;;;;;25.52;9.40;;;;;;;;;;5058615;28;20025;-84
2021/12/02 07:15:06;;;;;;;33.63;12.45;;;;;;;;;;5058586;28;20063;-85
2021/12/02 07:17:33;;;;;;;28.80;10.95;;;;;;;;;;5058831;28;20050;-85
2021/12/02 07:20:00;;;;;;;38.22;12.32;;;;;;;;;;5057544;28;20338;-85
2021/12/02 07:22:26;;;;;;;36.42;13.63;;;;;;;;;;5058554;28;20310;-85
2021/12/02 07:24:52;;;;;;;42.08;13.93;;;;;;;;;;5058206;28;20036;-85
2021/12/02 07:27:18;;;;;;;54.20;16.90;;;;;;;;;;5057175;28;20068;-85
2021/12/02 07:29:44;;;;;;;35.92;14.23;;;;;;;;;;5058109;28;20021;-85
2021/12/02 07:32:11;;;;;;;33.53;13.70;;;;;;;;;;5058114;28;20028;-84
2021/12/02 07:34:41;;;;;;;42.30;15.95;;;;;;;;;;5058427;28;20059;-84
2021/12/02 07:37:07;;;;;;;39.22;14.75;;;;;;;;;;5058254;28;20116;-84
2021/12/02 07:39:33;;;;;;;22.83;9.98;;;;;;;;;;5058068;28;20394;-84
2021/12/02 07:41:59;;;;;;;41.35;19.33;;;;;;;;;;5056653;28;20354;-84
2021/12/02 07:44:26;;;;;;;39.78;20.08;;;;;;;;;;5057990;28;20033;-84
2021/12/02 07:46:52;;;;;;;28.77;13.20;;;;;;;;;;5057755;28;20403;-82
2021/12/02 07:49:18;;;;;;;22.88;11.15;;;;;;;;;;5057956;28;20020;-82
2021/12/02 07:51:45;;;;;;;15.60;9.70;;;;;;;;;;5057570;28;20032;-82
2021/12/02 07:54:12;;;;;;;19.20;8.93;;;;;;;;;;5057650;28;20028;-82
2021/12/02 07:56:39;;;;;;;11.70;6.55;;;;;;;;;;5057436;28;20090;-80
2021/12/02 07:59:05;;;;;;;15.73;6.25;;;;;;;;;;5056644;28;20029;-79
2021/12/02 08:01:35;;;;;;;15.02;7.72;;;;;;;;;;5057381;28;20032;-80
2021/12/02 08:04:01;;;;;;;17.65;8.70;;;;;;;;;;5057060;28;20032;-79
2021/12/02 08:06:28;;;;;;;15.77;7.10;;;;;;;;;;5056787;28;20029;-80
2021/12/02 08:08:54;;;;;;;12.68;7.13;;;;;;;;;;5057211;28;20021;-80
2021/12/02 08:11:20;;;;;;;10.38;5.13;;;;;;;;;;5056119;28;20041;-79
2021/12/02 08:13:51;;;;;;;20.30;8.98;;;;;;;;;;5057052;28;20407;-80
2021/12/02 08:16:18;;;;;;;29.67;13.95;;;;;;;;;;5055927;28;20025;-80
2021/12/02 08:18:44;;;;;;;19.92;9.98;;;;;;;;;;5057013;28;20029;-79
2021/12/02 08:21:10;;;;;;;28.85;10.93;;;;;;;;;;5055723;28;20028;-80
2021/12/02 08:23:36;;;;;;;21.83;11.40;;;;;;;;;;5057002;28;20032;-79
2021/12/02 08:26:03;;;;;;;17.70;8.60;;;;;;;;;;5056946;28;20045;-80
2021/12/02 08:28:29;;;;;;;28.13;9.10;;;;;;;;;;5056830;28;20103;-79
2021/12/02 08:30:56;;;;;;;21.30;8.85;;;;;;;;;;5055293;28;20025;-80
2021/12/02 08:33:22;;;;;;;32.72;9.63;;;;;;;;;;5055865;28;20033;-80
2021/12/02 08:35:48;;;;;;;13.05;8.02;;;;;;;;;;5055097;28;20037;-80
2021/12/02 08:38:17;;;;;;;11.63;6.18;;;;;;;;;;5056582;28;20323;-79
2021/12/02 08:40:46;;;;;;;12.48;7.32;;;;;;;;;;5056866;28;20052;-80
2021/12/02 08:43:13;;;;;;;40.15;10.73;;;;;;;;;;5056828;28;20060;-80
2021/12/02 08:45:40;;;;;;;25.63;12.00;;;;;;;;;;5055156;28;20037;-79
2021/12/02 08:48:07;;;;;;;27.00;15.05;;;;;;;;;;5055404;28;20036;-79
2021/12/02 08:50:34;;;;;;;26.42;14.13;;;;;;;;;;5056763;28;20049;-79
2021/12/02 08:53:01;;;;;;;23.77;11.98;;;;;;;;;;5056826;28;20032;-78
2021/12/02 08:55:29;;;;;;;22.75;9.93;;;;;;;;;;5056682;28;20048;-79
2021/12/02 08:57:56;;;;;;;24.33;11.68;;;;;;;;;;5056754;28;20031;-79
2021/12/02 09:00:32;;;;;;;24.90;9.77;;;;;;;;;;5055208;28;20033;-80
2021/12/02 09:02:58;;;;;;;18.00;9.30;;;;;;;;;;5055438;28;20319;-79
2021/12/02 09:05:24;;;;;;;15.52;7.97;;;;;;;;;;5056741;28;20105;-79
2021/12/02 09:07:51;;;;;;;18.45;7.20;;;;;;;;;;5056100;28;20032;-80
2021/12/02 09:10:17;;;;;;;20.60;10.65;;;;;;;;;;5058506;28;20028;-79
2021/12/02 09:12:44;;;;;;;15.15;7.03;;;;;;;;;;5060548;28;20021;-79
2021/12/02 09:15:12;;;;;;;19.95;7.40;;;;;;;;;;5059158;28;20025;-79
2021/12/02 09:17:38;;;;;;;13.40;6.57;;;;;;;;;;5059304;28;20029;-80
2021/12/02 09:20:05;;;;;;;14.35;7.75;;;;;;;;;;5059280;28;20426;-79
2021/12/02 09:22:31;;;;;;;13.23;7.60;;;;;;;;;;5060140;28;20029;-79
2021/12/02 09:24:57;;;;;;;13.70;7.03;;;;;;;;;;5058620;28;20037;-79
2021/12/02 09:27:24;;;;;;;10.90;5.95;;;;;;;;;;5058847;28;20025;-79
2021/12/02 09:29:50;;;;;;;25.10;8.27;;;;;;;;;;5060262;28;20071;-79
2021/12/02 09:32:16;;;;;;;14.27;7.90;;;;;;;;;;5060131;28;20113;-79
2021/12/02 09:34:42;;;;;;;14.65;6.38;;;;;;;;;;5059996;28;20027;-79
2021/12/02 09:37:08;;;;;;;12.15;5.75;;;;;;;;;;5059483;28;20052;-78
2021/12/02 09:39:35;;;;;;;13.60;5.95;;;;;;;;;;5059783;28;20116;-79
2021/12/02 09:42:01;;;;;;;12.82;6.30;;;;;;;;;;5058097;28;20039;-79
2021/12/02 09:44:28;;;;;;;11.32;6.47;;;;;;;;;;5059819;28;20021;-79
2021/12/02 09:46:54;;;;;;;13.35;6.30;;;;;;;;;;5060059;28;20017;-79
2021/12/02 09:49:21;;;;;;;79.30;34.55;;;;;;;;;;5058636;28;20112;-79
2021/12/02 09:54:24;;;;;;;59.28;26.55;;;;;;;;;;5059362;28;20029;-79
2021/12/02 09:56:53;;;;;;;301.25;120.65;;;;;;;;;;5059946;28;20078;-79
2021/12/02 10:00:01;;;;;;;175.15;78.00;;;;;;;;;;5059307;28;20033;-79
2021/12/02 10:02:11;;;;;;;70.22;34.38;;;;;;;;;;5056533;28;20036;-79
2021/12/02 10:05:13;;;;;;;38.22;16.13;;;;;;;;;;5059371;28;20025;-79
2021/12/02 10:07:36;;;;;;;45.60;19.80;;;;;;;;;;5057914;28;20326;-79
2021/12/02 10:10:12;;;;;;;16.98;8.27;;;;;;;;;;5058202;28;20025;-79
2021/12/02 10:12:43;;;;;;;18.75;8.77;;;;;;;;;;5059441;28;20307;-79
2021/12/02 10:15:13;;;;;;;33.90;13.77;;;;;;;;;;5057362;28;20033;-79
2021/12/02 10:17:45;;;;;;;19.75;9.38;;;;;;;;;;5059520;28;20035;-79
2021/12/02 10:23:10;;;;;;;41.05;17.20;;;;;;;;;;5058121;28;20151;-79
2021/12/02 10:25:37;;;;;;;24.65;10.55;;;;;;;;;;5057479;28;20389;-79
2021/12/02 10:28:03;;;;;;;13.73;7.30;;;;;;;;;;5057995;28;20025;-79
2021/12/02 10:30:29;;;;;;;20.33;10.27;;;;;;;;;;5057243;28;20067;-78
2021/12/02 10:32:55;;;;;;;15.50;8.70;;;;;;;;;;5057585;28;20029;-79
2021/12/02 10:35:36;;;;;;;14.70;6.88;;;;;;;;;;5057691;28;20433;-79
2021/12/02 10:38:02;;;;;;;15.45;6.50;;;;;;;;;;5056799;28;20052;-78
2021/12/02 10:40:28;;;;;;;11.35;7.28;;;;;;;;;;5058594;28;20048;-79
2021/12/02 10:42:54;;;;;;;14.90;7.32;;;;;;;;;;5058502;28;20108;-79
2021/12/02 10:45:22;;;;;;;14.70;6.45;;;;;;;;;;5058487;28;20021;-79
2021/12/02 10:47:49;;;;;;;16.50;6.93;;;;;;;;;;5057561;28;20021;-79
2021/12/02 10:50:15;;;;;;;18.25;7.97;;;;;;;;;;5057482;28;20053;-79
2021/12/02 10:52:41;;;;;;;28.35;9.25;;;;;;;;;;5057460;28;20024;-79
2021/12/02 10:55:09;;;;;;;17.17;7.93;;;;;;;;;;5058197;28;20064;-79
2021/12/02 10:57:36;;;;;;;14.82;6.47;;;;;;;;;;5058617;28;20025;-79
2021/12/02 11:00:13;;;;;;;15.13;6.65;;;;;;;;;;5058408;28;20025;-79
2021/12/02 11:02:46;;;;;;;13.85;5.50;;;;;;;;;;5058291;28;20056;-79
2021/12/02 11:05:20;;;;;;;15.38;6.78;;;;;;;;;;5058404;28;20029;-78
2021/12/02 11:07:53;;;;;;;18.67;7.75;;;;;;;;;;5058056;28;20029;-79
2021/12/02 11:10:18;;;;;;;;;;;;;;;;;;5058541;28;20070;-79
2021/12/02 11:12:46;;;;;;;11.80;5.78;;;;;;;;;;5058204;28;19908;-79
2021/12/02 11:15:16;;;;;;;11.48;6.18;;;;;;;;;;5057027;28;20222;-79
2021/12/02 11:17:47;;;;;;;11.63;5.95;;;;;;;;;;5058051;28;20138;-78
2021/12/02 11:20:19;;;;;;;13.20;6.53;;;;;;;;;;5058039;28;20021;-79
2021/12/02 11:22:45;;;;;;;11.25;6.53;;;;;;;;;;5058249;28;20393;-79
2021/12/02 11:25:12;;;;;;;19.50;10.68;;;;;;;;;;5057845;28;20063;-78
2021/12/02 11:27:38;;;;;;;19.60;10.63;;;;;;;;;;5056872;28;20365;-78
2021/12/02 11:30:10;;;;;;;16.02;8.52;;;;;;;;;;5056561;28;20040;-79
2021/12/02 11:32:45;;;;;;;44.90;23.23;;;;;;;;;;5057663;28;20017;-78
2021/12/02 11:35:17;;;;;;;50.50;23.85;;;;;;;;;;5057731;28;20029;-79
2021/12/02 11:37:46;;;;;;;21.70;9.88;;;;;;;;;;5055794;28;20045;-79
2021/12/02 11:40:14;;;;;;;45.85;19.60;;;;;;;;;;5057581;28;20072;-79
2021/12/02 11:42:40;;;;;;;46.05;18.52;;;;;;;;;;5055909;28;20093;-79
2021/12/02 11:45:08;;;;;;;88.07;30.83;;;;;;;;;;5057432;28;20411;-79
2021/12/02 11:47:35;;;;;;;112.90;46.65;;;;;;;;;;5055141;28;20421;-79
2021/12/02 11:50:01;;;;;;;106.50;40.40;;;;;;;;;;5038072;28;20025;-79
2021/12/02 11:52:28;;;;;;;161.50;49.20;;;;;;;;;;5036323;28;20028;-79
2021/12/02 11:54:56;;;;;;;74.47;26.63;;;;;;;;;;5037533;28;20034;-78
2021/12/02 11:57:23;;;;;;;79.03;23.20;;;;;;;;;;5037351;28;20100;-79
2021/12/02 11:59:49;;;;;;;77.95;21.98;;;;;;;;;;5036092;28;20145;-79
2021/12/02 12:02:18;;;;;;;52.53;20.13;;;;;;;;;;5035994;28;20029;-79
2021/12/02 12:04:56;;;;;;;57.60;19.98;;;;;;;;;;5037616;28;20057;-79
2021/12/02 12:07:22;;;;;;;58.53;20.38;;;;;;;;;;5035703;28;20149;-79
2021/12/02 12:09:48;;;;;;;23.42;10.85;;;;;;;;;;5037119;28;20026;-79
2021/12/02 12:12:15;;;;;;;48.90;15.43;;;;;;;;;;5037098;28;20032;-79
2021/12/02 12:14:42;;;;;;;59.42;16.67;;;;;;;;;;5035981;28;20526;-79
2021/12/02 12:17:12;;;;;;;64.72;15.50;;;;;;;;;;5036111;28;20033;-79
2021/12/02 12:19:46;;;;;;;73.65;19.77;;;;;;;;;;5037053;28;20033;-79
2021/12/02 12:22:14;;;;;;;80.90;21.42;;;;;;;;;;5037024;28;20025;-79
2021/12/02 12:24:50;;;;;;;60.10;21.98;;;;;;;;;;5036869;28;20036;-78
2021/12/02 12:27:18;;;;;;;43.72;17.75;;;;;;;;;;5037030;28;20408;-79
2021/12/02 12:29:45;;;;;;;39.85;13.88;;;;;;;;;;5037110;28;20026;-79
2021/12/02 12:32:27;;;;;;;35.85;14.73;;;;;;;;;;5035593;28;20054;-79
2021/12/02 12:35:00;;;;;;;;;;;;;;;;;;5036354;28;20033;-78
2021/12/02 12:40:13;;;;;;;26.23;12.27;;;;;;;;;;5036834;28;20140;-78
2021/12/02 12:42:40;;;;;;;29.42;13.48;;;;;;;;;;5036847;28;20116;-78
2021/12/02 12:45:08;;;;;;;52.05;22.60;;;;;;;;;;5037187;28;20037;-79
2021/12/02 12:47:40;;;;;;;60.30;26.00;;;;;;;;;;5056504;28;20021;-79
2021/12/02 12:50:25;;;;;;;59.88;24.27;;;;;;;;;;5041324;28;20029;-78
2021/12/02 12:53:24;;;;;;;61.33;25.10;;;;;;;;;;5040707;28;20026;-78
2021/12/02 12:55:51;;;;;;;44.92;18.13;;;;;;;;;;5040177;28;20072;-78
2021/12/02 12:58:21;;;;;;;44.33;17.25;;;;;;;;;;5040560;28;20041;-78
2021/12/02 13:00:48;;;;;;;46.72;14.18;;;;;;;;;;5040813;28;20048;-78
2021/12/02 13:03:17;;;;;;;56.25;15.95;;;;;;;;;;5040887;28;20025;-78
2021/12/02 13:05:55;;;;;;;48.80;14.68;;;;;;;;;;5040442;28;20068;-79
2021/12/02 13:08:31;;;;;;;32.13;11.68;;;;;;;;;;5040366;28;20034;-79
2021/12/02 13:10:59;;;;;;;30.02;13.43;;;;;;;;;;5039497;28;20018;-78
2021/12/02 13:13:26;;;;;;;16.70;8.75;;;;;;;;;;5040671;28;20018;-79
2021/12/02 13:15:53;;;;;;;18.02;8.98;;;;;;;;;;5040689;28;20060;-78
2021/12/02 13:18:32;;;;;;;76.22;32.45;;;;;;;;;;5038703;28;20140;-79
2021/12/02 13:20:58;;;;;;;104.25;44.85;;;;;;;;;;5040664;28;20036;-79
2021/12/02 13:23:29;;;;;;;36.92;19.20;;;;;;;;;;5038640;28;20030;-78
2021/12/02 13:26:05;;;;;;;26.70;13.48;;;;;;;;;;5051524;28;20049;-78
2021/12/02 13:28:33;;;;;;;30.15;15.02;;;;;;;;;;5058642;28;20040;-78
2021/12/02 13:31:04;;;;;;;23.15;11.35;;;;;;;;;;5060319;28;20014;-79
2021/12/02 13:33:32;;;;;;;28.85;13.57;;;;;;;;;;5059307;28;20100;-83
2021/12/02 13:35:58;;;;;;;26.58;10.85;;;;;;;;;;5060176;28;20037;-82
2021/12/02 13:38:24;;;;;;;50.95;13.77;;;;;;;;;;5058806;28;20060;-82
2021/12/02 13:40:50;;;;;;;51.13;15.82;;;;;;;;;;5060262;28;20327;-82
2021/12/02 13:43:16;;;;;;;40.78;13.23;;;;;;;;;;5059727;28;20064;-82
2021/12/02 13:45:43;;;;;;;47.97;13.65;;;;;;;;;;5059889;28;20068;-82
2021/12/02 13:48:13;;;;;;;68.80;16.25;;;;;;;;;;5059712;28;20123;-82
2021/12/02 13:50:42;;;;;;;75.95;21.02;;;;;;;;;;5060202;28;20029;-82
2021/12/02 13:53:09;;;;;;;76.72;22.67;;;;;;;;;;5059672;28;20437;-82
2021/12/02 13:55:39;;;;;;;93.47;24.00;;;;;;;;;;5041068;28;20037;-82
2021/12/02 14:00:40;;;;;;;51.88;18.42;;;;;;;;;;5059770;28;20025;-82
2021/12/02 14:03:08;;;;;;;43.53;16.40;;;;;;;;;;5060022;28;20035;-82
2021/12/02 14:05:39;;;;;;;37.03;16.15;;;;;;;;;;5059633;28;20024;-82
2021/12/02 14:11:09;;;;;;;60.90;21.80;;;;;;;;;;5059663;28;20048;-82
2021/12/02 14:13:35;;;;;;;45.42;18.30;;;;;;;;;;5059141;28;20021;-82
2021/12/02 14:16:02;;;;;;;26.77;13.00;;;;;;;;;;5057969;28;20033;-82
2021/12/02 14:18:29;;;;;;;22.63;11.27;;;;;;;;;;5059439;28;20441;-82
2021/12/02 14:20:58;;;;;;;22.60;13.00;;;;;;;;;;5059687;28;20029;-82
2021/12/02 14:23:24;;;;;;;33.13;15.23;;;;;;;;;;5059410;28;20099;-82
2021/12/02 14:25:52;;;;;;;37.72;14.80;;;;;;;;;;5059452;28;20114;-82
2021/12/02 14:28:31;;;;;;;37.83;14.60;;;;;;;;;;5059139;28;20032;-81
2021/12/02 14:30:58;;;;;;;63.65;18.98;;;;;;;;;;5057741;28;20036;-82
2021/12/02 14:33:29;;;;;;;71.47;23.52;;;;;;;;;;5058144;28;20115;-82
2021/12/02 14:35:58;;;;;;;44.13;20.55;;;;;;;;;;5059339;28;20160;-82
2021/12/02 14:38:28;;;;;;;46.28;20.90;;;;;;;;;;5058515;28;20415;-82
2021/12/02 14:40:59;;;;;;;36.55;19.55;;;;;;;;;;5058889;28;20029;-82
2021/12/02 14:43:25;;;;;;;44.75;21.98;;;;;;;;;;5058860;28;20025;-82
2021/12/02 14:46:10;;;;;;;49.20;21.75;;;;;;;;;;5057402;28;20442;-81
2021/12/02 14:48:37;;;;;;;54.85;23.23;;;;;;;;;;5058569;28;20025;-81
2021/12/02 14:51:04;;;;;;;49.00;22.55;;;;;;;;;;5054152;28;20021;-80
2021/12/02 14:53:33;;;;;;;48.65;20.77;;;;;;;;;;5054109;28;20045;-81
2021/12/02 14:56:04;;;;;;;55.53;19.60;;;;;;;;;;5046905;28;20037;-83
2021/12/02 14:58:31;;;;;;;41.30;20.70;;;;;;;;;;5056820;28;20029;-81
2021/12/02 15:01:25;;;;;;;48.63;23.00;;;;;;;;;;5058345;28;20021;-81
2021/12/02 15:03:51;;;;;;;55.15;27.35;;;;;;;;;;5055074;28;20044;-81
2021/12/02 15:06:33;;;;;;;52.38;27.52;;;;;;;;;;5058184;28;20028;-81